Time;durP1;ratioP1;P1;durP2;ratioP2;P2;SDS_P1;SDS_P2;PMS_P1;PMS_P2;Temp;Humidity;BMP_temperature;BMP_pressure;BME280_temperature;BME280_humidity;BME280_pressure;Samples;Min_cycle;Max_cycle;Signal;HPM_P1;HPM_P2
2023/06/23 00:00:25;;;;;;;2.65;1.45;;;17.40;99.90;;;;;;5090223;28;20493;-67
2023/06/23 00:02:51;;;;;;;2.73;1.50;;;17.40;99.90;;;;;;5083038;28;20583;-66
2023/06/23 00:05:18;;;;;;;1.85;1.42;;;17.30;99.90;;;;;;5080606;28;20119;-67
2023/06/23 00:07:44;;;;;;;3.83;1.80;;;17.30;99.90;;;;;;5076832;28;20049;-66
2023/06/23 00:10:11;;;;;;;1.52;1.42;;;17.20;99.90;;;;;;5070851;28;20043;-66
2023/06/23 00:12:41;;;;;;;2.08;1.58;;;17.20;99.90;;;;;;5051395;28;20064;-67
2023/06/23 00:15:12;;;;;;;1.50;1.40;;;17.10;99.90;;;;;;5069134;28;20178;-66
2023/06/23 00:17:41;;;;;;;2.17;1.60;;;17.10;99.90;;;;;;5069013;28;20048;-66
2023/06/23 00:20:14;;;;;;;1.98;1.33;;;17.10;99.90;;;;;;5067232;28;20040;-67
2023/06/23 00:22:42;;;;;;;1.63;1.52;;;17.10;99.90;;;;;;5068954;28;20041;-66
2023/06/23 00:25:10;;;;;;;1.50;1.40;;;17.10;99.90;;;;;;5070394;28;20050;-66
2023/06/23 00:27:41;;;;;;;1.52;1.20;;;17.10;99.90;;;;;;5068253;28;20048;-67
2023/06/23 00:30:08;;;;;;;1.90;1.42;;;17.10;99.90;;;;;;5068275;28;20444;-66
2023/06/23 00:32:35;;;;;;;3.38;1.77;;;17.10;99.90;;;;;;5066798;28;20044;-66
2023/06/23 00:35:02;;;;;;;1.73;1.63;;;17.10;99.90;;;;;;5069972;28;20143;-66
2023/06/23 00:37:30;;;;;;;6.72;1.70;;;17.10;99.90;;;;;;5049357;28;20053;-66
2023/06/23 00:39:58;;;;;;;1.60;1.50;;;17.20;99.90;;;;;;5068262;28;20316;-67
2023/06/23 00:42:25;;;;;;;2.22;1.80;;;17.20;99.90;;;;;;5069431;28;20091;-66
2023/06/23 00:44:57;;;;;;;2.92;1.33;;;17.10;99.90;;;;;;5068390;28;20040;-66
2023/06/23 00:47:25;;;;;;;2.92;1.40;;;17.10;99.90;;;;;;5068705;28;20045;-66
2023/06/23 00:49:52;;;;;;;3.55;1.70;;;17.20;99.90;;;;;;5079248;28;20139;-67
2023/06/23 00:52:18;;;;;;;2.70;1.35;;;17.20;99.90;;;;;;5068161;28;20140;-66
2023/06/23 00:54:45;;;;;;;2.38;1.35;;;17.20;99.90;;;;;;5066807;28;20032;-66
2023/06/23 00:57:12;;;;;;;4.22;1.42;;;17.10;99.90;;;;;;5068257;28;20078;-66
2023/06/23 00:59:38;;;;;;;2.67;1.90;;;17.10;99.90;;;;;;5067670;28;20401;-66
2023/06/23 01:02:05;;;;;;;1.65;1.30;;;17.10;99.90;;;;;;5058960;28;20044;-67
2023/06/23 01:04:33;;;;;;;2.17;1.20;;;17.10;99.90;;;;;;5068347;28;20036;-66
2023/06/23 01:07:21;;;;;;;2.75;1.48;;;17.10;99.90;;;;;;5069271;28;20045;-66
2023/06/23 01:10:12;;;;;;;1.58;1.48;;;17.10;99.90;;;;;;5068486;28;20040;-66
2023/06/23 01:12:58;;;;;;;2.95;1.48;;;17.10;99.90;;;;;;5085457;28;20048;-66
2023/06/23 01:15:33;;;;;;;2.28;1.27;;;17.10;99.90;;;;;;5086982;28;20054;-66
2023/06/23 01:18:27;;;;;;;2.20;1.65;;;17.10;99.90;;;;;;5066939;28;20063;-66
2023/06/23 01:21:01;;;;;;;1.17;1.17;;;17.00;99.90;;;;;;5087075;28;20083;-66
2023/06/23 01:24:01;;;;;;;1.85;1.35;;;17.10;99.90;;;;;;5088021;28;20032;-66
2023/06/23 01:26:52;;;;;;;3.60;1.23;;;17.00;99.90;;;;;;5074413;28;20082;-66
2023/06/23 01:29:28;;;;;;;1.42;1.15;;;17.10;99.90;;;;;;5086160;28;20547;-66
2023/06/23 01:32:05;;;;;;;1.85;1.20;;;17.10;99.90;;;;;;5088859;28;20100;-67
2023/06/23 01:34:39;;;;;;;2.15;1.05;;;17.10;99.90;;;;;;5068042;28;20056;-66
2023/06/23 01:37:10;;;;;;;1.63;1.42;;;17.10;99.90;;;;;;5086268;28;20410;-67
2023/06/23 01:39:41;;;;;;;1.50;1.40;;;17.10;99.90;;;;;;5088140;28;20044;-66
2023/06/23 01:42:16;;;;;;;1.30;1.20;;;17.10;99.90;;;;;;5086038;28;20044;-66
2023/06/23 01:44:46;;;;;;;1.58;1.08;;;17.20;99.90;;;;;;5086572;28;20044;-66
2023/06/23 01:47:22;;;;;;;1.77;1.40;;;17.20;99.90;;;;;;5075041;28;20080;-66
2023/06/23 01:49:51;;;;;;;1.48;1.25;;;17.20;99.90;;;;;;5067163;28;20052;-67
2023/06/23 01:52:19;;;;;;;1.70;1.20;;;17.20;99.90;;;;;;5087658;28;20036;-67
2023/06/23 01:54:49;;;;;;;1.98;1.30;;;17.20;99.90;;;;;;5085978;28;20040;-67
2023/06/23 01:57:18;;;;;;;5.50;1.13;;;17.30;99.90;;;;;;5041661;28;20446;-67
2023/06/23 01:59:46;;;;;;;1.67;1.08;;;17.30;99.90;;;;;;5058540;28;20055;-67
2023/06/23 02:02:15;;;;;;;4.40;1.15;;;17.30;99.90;;;;;;5087538;28;20035;-67
2023/06/23 02:04:44;;;;;;;3.67;1.60;;;17.30;99.90;;;;;;5077513;28;20079;-66
2023/06/23 02:07:13;;;;;;;1.80;1.40;;;17.30;99.90;;;;;;5080141;28;20554;-67
2023/06/23 02:09:43;;;;;;;2.20;1.50;;;17.30;99.90;;;;;;5053435;28;20051;-67
2023/06/23 02:12:10;;;;;;;2.05;1.05;;;17.40;99.90;;;;;;5079524;28;20055;-67
2023/06/23 02:14:39;;;;;;;1.30;1.08;;;17.40;99.90;;;;;;5064571;28;20487;-66
2023/06/23 02:17:09;;;;;;;2.60;1.67;;;17.40;99.90;;;;;;5078228;28;20040;-67
2023/06/23 02:19:43;;;;;;;1.52;1.05;;;17.40;99.90;;;;;;5065537;28;20044;-67
2023/06/23 02:22:17;;;;;;;1.85;1.05;;;17.50;99.90;;;;;;5079021;28;20067;-67
2023/06/23 02:24:45;;;;;;;1.88;1.15;;;17.50;99.90;;;;;;5084068;28;20048;-67
2023/06/23 02:27:12;;;;;;;0.98;0.98;;;17.50;99.90;;;;;;5087168;28;20101;-67
2023/06/23 02:29:40;;;;;;;3.42;1.35;;;17.60;99.90;;;;;;5064195;28;20095;-66
2023/06/23 02:32:08;;;;;;;5.95;1.50;;;17.60;99.90;;;;;;5075598;28;21370;-67
2023/06/23 02:34:35;;;;;;;2.05;1.17;;;17.60;99.90;;;;;;5068038;28;20083;-66
2023/06/23 02:37:09;;;;;;;3.33;1.10;;;17.60;99.90;;;;;;5086561;28;20067;-67
2023/06/23 02:39:42;;;;;;;4.85;1.50;;;17.70;99.90;;;;;;5067436;28;20060;-67
2023/06/23 02:42:12;;;;;;;1.38;0.93;;;17.60;99.90;;;;;;5064523;28;20815;-67
2023/06/23 02:44:44;;;;;;;4.20;1.40;;;17.60;99.90;;;;;;5083275;28;20636;-67
2023/06/23 02:47:17;;;;;;;4.43;1.10;;;17.60;99.90;;;;;;5085445;28;20051;-67
2023/06/23 02:49:45;;;;;;;1.10;1.10;;;17.60;99.90;;;;;;5066681;28;20053;-67
2023/06/23 02:52:15;;;;;;;3.55;1.17;;;17.70;99.90;;;;;;5086450;28;20046;-67
2023/06/23 02:54:48;;;;;;;1.60;1.50;;;17.70;99.90;;;;;;5072683;28;20502;-67
2023/06/23 02:57:17;;;;;;;2.00;1.00;;;17.70;99.90;;;;;;5075052;28;20485;-67
2023/06/23 02:59:44;;;;;;;7.22;1.40;;;17.80;99.90;;;;;;5089738;28;20631;-67
2023/06/23 03:02:14;;;;;;;1.15;1.05;;;17.70;99.90;;;;;;5070385;28;20488;-67
2023/06/23 03:04:41;;;;;;;1.40;1.30;;;17.80;99.90;;;;;;5082273;28;20185;-66
2023/06/23 03:07:10;;;;;;;4.28;1.40;;;17.80;99.90;;;;;;5084888;28;20040;-67
2023/06/23 03:09:37;;;;;;;5.17;1.30;;;17.80;99.90;;;;;;5073167;28;20436;-67
2023/06/23 03:12:04;;;;;;;2.00;1.25;;;17.70;99.90;;;;;;5061504;28;20049;-67
2023/06/23 03:14:31;;;;;;;4.40;1.33;;;17.70;99.90;;;;;;5071573;28;20040;-67
2023/06/23 03:17:09;;;;;;;2.05;1.17;;;17.70;99.90;;;;;;5088509;28;20048;-67
2023/06/23 03:19:44;;;;;;;2.50;1.30;;;17.80;99.90;;;;;;5080696;28;20432;-67
2023/06/23 03:22:15;;;;;;;6.68;1.15;;;17.80;99.90;;;;;;5071635;28;20040;-67
2023/06/23 03:24:44;;;;;;;4.82;1.20;;;17.70;99.90;;;;;;5090318;28;20051;-67
2023/06/23 03:27:13;;;;;;;1.55;1.10;;;17.70;99.90;;;;;;5090873;28;20040;-67
2023/06/23 03:29:54;;;;;;;2.28;1.15;;;17.70;99.90;;;;;;5087640;28;20397;-67
2023/06/23 03:32:28;;;;;;;1.90;1.25;;;17.80;99.90;;;;;;5090972;28;20040;-67
2023/06/23 03:35:02;;;;;;;3.72;1.65;;;17.80;99.90;;;;;;5067891;28;20056;-67
2023/06/23 03:37:31;;;;;;;2.15;1.00;;;17.80;99.90;;;;;;5081644;28;20052;-67
2023/06/23 03:40:00;;;;;;;;;;;17.90;99.90;;;;;;5076164;28;20048;-67
2023/06/23 03:42:28;;;;;;;1.30;1.20;;;17.90;99.90;;;;;;5088786;28;19955;-67
2023/06/23 03:44:58;;;;;;;3.13;1.50;;;17.90;99.90;;;;;;5072362;28;20043;-67
2023/06/23 03:47:28;;;;;;;3.47;1.20;;;17.90;99.90;;;;;;5088605;28;20043;-67
2023/06/23 03:50:07;;;;;;;2.17;1.38;;;17.90;99.90;;;;;;5077691;28;20047;-67
2023/06/23 03:52:34;;;;;;;;;;;17.90;99.90;;;;;;5086911;28;20036;-67
2023/06/23 03:55:02;;;;;;;2.15;1.10;;;17.90;99.90;;;;;;5084665;28;20035;-67
2023/06/23 03:57:31;;;;;;;7.03;1.85;;;17.90;99.90;;;;;;5089663;28;20043;-67
2023/06/23 03:59:58;;;;;;;1.58;1.20;;;17.90;99.90;;;;;;5088497;28;20481;-67
2023/06/23 04:02:26;;;;;;;2.28;1.10;;;17.90;99.90;;;;;;5090017;28;20463;-67
2023/06/23 04:04:56;;;;;;;1.52;1.00;;;17.90;99.90;;;;;;5083532;28;20044;-67
2023/06/23 04:07:24;;;;;;;1.42;1.10;;;17.90;99.90;;;;;;5072225;28;20410;-67
2023/06/23 04:09:52;;;;;;;2.55;1.30;;;17.90;99.90;;;;;;5079438;28;20048;-66
2023/06/23 04:12:20;;;;;;;1.38;1.02;;;18.00;99.90;;;;;;5083874;28;20040;-67
2023/06/23 04:14:51;;;;;;;1.48;1.17;;;18.00;99.90;;;;;;5088975;28;20040;-67
2023/06/23 04:17:21;;;;;;;3.65;1.30;;;18.00;99.90;;;;;;5081986;28;20127;-67
2023/06/23 04:19:48;;;;;;;;;;;18.00;99.90;;;;;;5076806;28;20044;-67
2023/06/23 04:22:18;;;;;;;2.05;1.35;;;18.00;99.90;;;;;;5067187;28;20415;-67
2023/06/23 04:24:48;;;;;;;3.47;1.65;;;17.90;99.90;;;;;;5070628;28;20044;-67
2023/06/23 04:27:17;;;;;;;2.53;1.70;;;18.00;99.90;;;;;;5076962;28;20041;-67
2023/06/23 04:29:48;;;;;;;;;;;17.90;99.90;;;;;;5086630;28;20094;-67
2023/06/23 04:32:17;;;;;;;2.30;1.50;;;17.90;99.90;;;;;;5089894;28;19974;-67
2023/06/23 04:34:44;;;;;;;2.05;1.20;;;18.00;99.90;;;;;;5076481;28;20079;-67
2023/06/23 04:37:32;;;;;;;3.38;1.33;;;18.00;99.90;;;;;;5071971;28;20053;-67
2023/06/23 04:40:24;;;;;;;3.80;1.17;;;18.00;99.90;;;;;;5067955;28;20086;-67
2023/06/23 04:42:54;;;;;;;3.03;1.60;;;18.10;99.90;;;;;;5067782;28;20051;-67
2023/06/23 04:45:23;;;;;;;;;;;18.00;99.90;;;;;;5069591;28;20490;-67
2023/06/23 04:47:56;;;;;;;1.45;1.20;;;18.10;99.90;;;;;;5050265;28;20303;-67
2023/06/23 04:50:25;;;;;;;4.93;1.52;;;18.10;99.90;;;;;;5051431;28;20565;-67
2023/06/23 04:52:54;;;;;;;3.78;1.35;;;18.10;99.90;;;;;;5067984;28;20045;-67
2023/06/23 04:55:21;;;;;;;2.30;1.27;;;18.10;99.90;;;;;;5068943;28;20497;-67
2023/06/23 04:57:55;;;;;;;2.72;1.00;;;18.10;99.90;;;;;;5068216;28;20585;-67
2023/06/23 05:00:24;;;;;;;3.33;1.10;;;18.10;99.90;;;;;;5067054;28;20512;-67
2023/06/23 05:02:53;;;;;;;2.35;1.17;;;18.10;99.90;;;;;;5056181;28;20044;-67
2023/06/23 05:05:23;;;;;;;1.58;1.33;;;18.00;99.90;;;;;;5051396;28;20036;-67
2023/06/23 05:07:52;;;;;;;4.10;0.90;;;18.10;99.90;;;;;;5070493;28;20084;-67
2023/06/23 05:10:24;;;;;;;2.67;0.80;;;18.00;99.90;;;;;;5051223;28;20049;-66
2023/06/23 05:12:55;;;;;;;1.30;1.02;;;18.00;99.90;;;;;;5087413;28;20056;-67
2023/06/23 05:15:23;;;;;;;4.65;1.30;;;18.00;99.90;;;;;;5089024;28;20036;-66
2023/06/23 05:17:52;;;;;;;4.70;1.15;;;18.00;99.90;;;;;;5084784;28;20429;-67
2023/06/23 05:20:22;;;;;;;2.33;1.30;;;18.00;99.90;;;;;;5066650;28;20439;-67
2023/06/23 05:22:51;;;;;;;3.03;1.38;;;18.00;99.90;;;;;;5083816;28;20127;-67
2023/06/23 05:25:19;;;;;;;1.42;1.23;;;18.00;99.90;;;;;;5084485;28;20043;-67
2023/06/23 05:27:46;;;;;;;6.80;1.50;;;18.00;99.90;;;;;;5083439;28;20043;-67
2023/06/23 05:30:18;;;;;;;2.60;1.45;;;18.00;99.90;;;;;;5086064;28;20040;-67
2023/06/23 05:32:48;;;;;;;1.65;1.40;;;18.10;99.90;;;;;;5069891;28;20119;-67
2023/06/23 05:35:16;;;;;;;2.17;1.15;;;18.10;99.90;;;;;;5068952;28;20051;-67
2023/06/23 05:37:44;;;;;;;1.40;1.13;;;18.10;99.90;;;;;;5066827;28;20473;-67
2023/06/23 05:40:15;;;;;;;1.70;1.20;;;18.10;99.90;;;;;;5069025;28;20041;-67
2023/06/23 05:42:42;;;;;;;1.40;1.30;;;18.20;99.90;;;;;;5069573;28;20040;-67
2023/06/23 05:45:10;;;;;;;2.33;1.20;;;18.20;99.90;;;;;;5049394;28;20429;-67
2023/06/23 05:47:56;;;;;;;1.80;1.35;;;18.20;99.90;;;;;;5066715;28;20115;-67
2023/06/23 05:50:30;;;;;;;3.03;1.23;;;18.30;99.90;;;;;;5081746;28;20848;-67
2023/06/23 05:53:08;;;;;;;3.45;1.30;;;18.40;99.90;;;;;;5079508;28;20044;-67
2023/06/23 05:55:40;;;;;;;3.13;1.13;;;18.40;99.90;;;;;;5079114;28;20133;-67
2023/06/23 05:58:09;;;;;;;2.38;1.50;;;18.40;99.90;;;;;;5070517;28;20043;-67
2023/06/23 06:00:54;;;;;;;2.00;1.10;;;18.50;99.90;;;;;;5071457;28;20048;-66
2023/06/23 06:03:26;;;;;;;2.75;1.20;;;18.40;99.90;;;;;;5067645;28;20037;-66
2023/06/23 06:05:59;;;;;;;3.25;1.50;;;18.50;99.90;;;;;;5065758;28;20041;-66
2023/06/23 06:08:26;;;;;;;3.40;1.77;;;18.50;99.90;;;;;;5067238;28;20080;-66
2023/06/23 06:10:54;;;;;;;1.55;1.17;;;18.50;99.90;;;;;;5069885;28;20040;-66
2023/06/23 06:13:22;;;;;;;3.55;1.40;;;18.50;99.90;;;;;;5052524;28;20111;-66
2023/06/23 06:15:51;;;;;;;2.42;1.30;;;18.60;99.90;;;;;;5074136;28;20482;-66
2023/06/23 06:18:21;;;;;;;2.40;1.30;;;18.60;99.90;;;;;;5071428;28;20036;-66
2023/06/23 06:20:49;;;;;;;1.80;1.30;;;18.60;99.90;;;;;;5071971;28;20133;-66
2023/06/23 06:23:17;;;;;;;1.38;1.17;;;18.60;99.90;;;;;;5050495;28;20398;-66
2023/06/23 06:25:45;;;;;;;3.60;1.10;;;18.60;99.90;;;;;;5067234;28;20059;-67
2023/06/23 06:28:13;;;;;;;2.47;1.45;;;18.60;99.90;;;;;;5066867;28;20048;-66
2023/06/23 06:30:43;;;;;;;3.75;1.90;;;18.60;99.90;;;;;;5073872;28;20048;-66
2023/06/23 06:33:12;;;;;;;1.08;1.08;;;18.70;99.90;;;;;;5069032;28;20115;-67
2023/06/23 06:35:42;;;;;;;1.60;1.50;;;18.70;99.90;;;;;;5065502;28;20100;-66
2023/06/23 06:38:10;;;;;;;1.10;1.10;;;18.70;99.90;;;;;;5066965;28;20529;-66
2023/06/23 06:40:38;;;;;;;1.42;1.30;;;18.80;99.90;;;;;;5068261;28;20477;-66
2023/06/23 06:43:04;;;;;;;1.42;1.30;;;18.80;99.90;;;;;;5070398;28;20052;-66
2023/06/23 06:45:31;;;;;;;2.05;1.52;;;18.90;99.90;;;;;;5067381;28;20397;-66
2023/06/23 06:48:00;;;;;;;1.20;1.10;;;19.00;99.90;;;;;;5069191;28;20040;-66
2023/06/23 06:50:27;;;;;;;2.55;1.80;;;19.00;99.90;;;;;;5050861;28;20057;-66
2023/06/23 06:52:55;;;;;;;1.65;1.33;;;19.10;99.90;;;;;;5064660;28;20512;-66
2023/06/23 06:55:22;;;;;;;2.60;1.25;;;19.20;99.90;;;;;;5069966;28;20048;-67
2023/06/23 06:57:49;;;;;;;1.30;1.10;;;19.30;99.90;;;;;;5064820;28;20053;-66
2023/06/23 07:00:21;;;;;;;4.30;1.55;;;19.40;99.90;;;;;;5067470;28;20493;-66
2023/06/23 07:02:48;;;;;;;1.90;1.38;;;19.50;99.90;;;;;;5054348;28;20045;-66
2023/06/23 07:05:16;;;;;;;2.22;1.25;;;19.50;99.90;;;;;;5067213;28;20080;-66
2023/06/23 07:07:44;;;;;;;1.55;1.30;;;19.60;99.90;;;;;;5048695;28;20051;-66
2023/06/23 07:10:11;;;;;;;1.95;1.38;;;19.70;99.90;;;;;;5067234;28;20076;-66
2023/06/23 07:12:38;;;;;;;2.85;1.63;;;19.80;99.90;;;;;;5074177;28;20131;-66
2023/06/23 07:15:07;;;;;;;1.08;1.00;;;19.90;99.90;;;;;;5081344;28;20297;-66
2023/06/23 07:17:33;;;;;;;2.35;1.20;;;20.00;99.90;;;;;;5076923;28;20055;-65
2023/06/23 07:20:00;;;;;;;1.83;1.42;;;20.10;99.90;;;;;;5077173;28;20048;-65
2023/06/23 07:22:26;;;;;;;2.28;1.27;;;20.10;99.90;;;;;;5077737;28;21460;-65
2023/06/23 07:24:55;;;;;;;2.20;1.10;;;20.10;99.90;;;;;;5066011;28;20048;-65
2023/06/23 07:27:21;;;;;;;2.75;1.42;;;20.10;99.90;;;;;;5077035;28;20036;-65
2023/06/23 07:29:47;;;;;;;1.42;1.33;;;20.00;99.90;;;;;;5067385;28;20045;-65
2023/06/23 07:32:14;;;;;;;2.95;1.20;;;20.00;99.90;;;;;;5079308;28;20043;-66
2023/06/23 07:34:41;;;;;;;2.35;1.13;;;20.00;99.90;;;;;;5068515;28;20056;-66
2023/06/23 07:37:08;;;;;;;2.25;1.50;;;20.20;99.90;;;;;;5081659;28;20131;-66
2023/06/23 07:39:41;;;;;;;2.88;1.50;;;20.20;98.80;;;;;;5072506;28;20592;-66
2023/06/23 07:42:07;;;;;;;1.40;1.30;;;20.40;99.90;;;;;;5067519;28;20314;-66
2023/06/23 07:44:36;;;;;;;1.83;1.10;;;20.50;95.70;;;;;;5068583;28;20047;-67
2023/06/23 07:47:04;;;;;;;3.05;0.95;;;20.50;91.20;;;;;;5081408;28;20037;-67
2023/06/23 07:49:30;;;;;;;1.88;1.20;;;20.50;85.80;;;;;;5056403;28;20036;-67
2023/06/23 07:52:00;;;;;;;1.27;1.17;;;20.60;90.70;;;;;;5071824;28;20108;-68
2023/06/23 07:54:29;;;;;;;2.05;1.10;;;20.70;90.10;;;;;;5068022;28;20059;-67
2023/06/23 07:56:57;;;;;;;1.38;1.17;;;20.80;85.80;;;;;;5068443;28;20128;-67
2023/06/23 07:59:27;;;;;;;1.85;1.05;;;20.80;83.80;;;;;;5069623;28;20129;-67
2023/06/23 08:01:54;;;;;;;1.30;1.20;;;21.00;83.60;;;;;;5054401;28;20044;-67
2023/06/23 08:04:21;;;;;;;1.55;1.27;;;21.20;76.60;;;;;;5069530;28;20040;-67
2023/06/23 08:06:47;;;;;;;2.25;1.35;;;21.50;71.00;;;;;;5071957;28;20159;-67
2023/06/23 08:09:15;;;;;;;1.23;1.20;;;21.70;54.40;;;;;;5068960;28;20036;-67
2023/06/23 08:11:42;;;;;;;1.58;1.20;;;22.10;54.20;;;;;;5078595;28;20040;-68
2023/06/23 08:14:08;;;;;;;3.35;1.80;;;22.40;48.90;;;;;;5088511;28;20047;-67
2023/06/23 08:16:35;;;;;;;1.25;1.15;;;22.60;31.10;;;;;;5071214;28;20470;-67
2023/06/23 08:19:01;;;;;;;1.20;1.10;;;22.80;26.20;;;;;;5087809;28;20085;-67
2023/06/23 08:21:28;;;;;;;2.50;1.27;;;23.00;21.30;;;;;;5089843;28;20055;-66
2023/06/23 08:23:55;;;;;;;1.70;1.25;;;23.20;14.90;;;;;;5066329;28;20076;-67
2023/06/23 08:26:21;;;;;;;1.63;1.45;;;23.40;9.30;;;;;;5063712;28;20424;-67
2023/06/23 08:28:48;;;;;;;1.35;1.25;;;23.40;1.00;;;;;;5086203;28;20036;-67
2023/06/23 08:31:14;;;;;;;1.55;1.20;;;23.60;7.20;;;;;;5070375;28;20086;-68
2023/06/23 08:33:41;;;;;;;1.02;1.02;;;23.80;1.00;;;;;;5070747;28;20139;-67
2023/06/23 08:36:07;;;;;;;1.30;1.20;;;24.00;4.40;;;;;;5087473;28;20052;-68
2023/06/23 08:38:34;;;;;;;1.17;1.17;;;24.10;1.80;;;;;;5064406;28;20125;-67
2023/06/23 08:41:01;;;;;;;2.13;1.30;;;24.00;1.00;;;;;;5062728;28;20048;-67
2023/06/23 08:43:29;;;;;;;2.50;1.20;;;24.10;1.00;;;;;;5068044;28;20071;-68
2023/06/23 08:45:58;;;;;;;0.93;0.93;;;23.90;1.00;;;;;;5060675;28;20051;-68
2023/06/23 08:48:27;;;;;;;1.20;1.20;;;23.90;1.00;;;;;;5089435;28;20126;-68
2023/06/23 08:50:54;;;;;;;;;;;24.00;1.00;;;;;;5088904;28;20079;-67
2023/06/23 08:53:23;;;;;;;0.95;0.90;;;24.00;1.00;;;;;;5088033;28;19977;-67
2023/06/23 08:55:51;;;;;;;1.40;1.20;;;24.20;8.50;;;;;;5062181;28;20048;-67
2023/06/23 08:58:19;;;;;;;1.63;1.05;;;24.20;1.00;;;;;;5053745;28;20076;-67
2023/06/23 09:00:46;;;;;;;1.98;1.40;;;24.40;1.00;;;;;;5058320;28;20052;-67
2023/06/23 09:03:13;;;;;;;1.15;1.10;;;24.20;1.00;;;;;;5048677;28;20056;-67
2023/06/23 09:05:41;;;;;;;1.23;1.13;;;24.10;1.00;;;;;;5068666;28;20083;-68
2023/06/23 09:08:08;;;;;;;1.42;0.93;;;24.10;1.00;;;;;;5067354;28;20101;-67
2023/06/23 09:10:35;;;;;;;2.42;1.27;;;24.20;1.00;;;;;;5050403;28;20048;-68
2023/06/23 09:13:07;;;;;;;4.05;1.23;;;24.10;1.00;;;;;;5088437;28;20582;-68
2023/06/23 09:15:38;;;;;;;1.30;1.20;;;24.20;10.30;;;;;;5055348;28;20052;-68
2023/06/23 09:18:08;;;;;;;1.27;1.17;;;24.20;1.00;;;;;;5056733;28;20036;-67
2023/06/23 09:20:36;;;;;;;1.35;1.15;;;24.10;1.50;;;;;;5065870;28;20074;-68
2023/06/23 09:23:02;;;;;;;1.40;1.30;;;24.00;1.00;;;;;;5087286;28;20901;-68
2023/06/23 09:25:40;;;;;;;2.95;1.10;;;23.80;5.00;;;;;;5066562;28;20053;-67
2023/06/23 09:28:06;;;;;;;1.50;1.05;;;23.90;7.00;;;;;;5067618;28;20127;-68
2023/06/23 09:30:36;;;;;;;1.90;1.05;;;23.90;6.00;;;;;;5070394;28;20565;-67
2023/06/23 09:33:06;;;;;;;1.30;1.20;;;23.90;9.40;;;;;;5086397;28;20489;-67
2023/06/23 09:35:33;;;;;;;1.25;1.15;;;23.90;16.10;;;;;;5053614;28;20055;-67
2023/06/23 09:38:02;;;;;;;1.10;1.00;;;24.00;11.50;;;;;;5065549;28;20061;-67
2023/06/23 09:40:28;;;;;;;1.40;1.20;;;24.10;10.60;;;;;;5049019;28;20543;-68
2023/06/23 09:42:57;;;;;;;1.25;1.25;;;24.00;13.80;;;;;;5066349;28;20509;-68
2023/06/23 09:45:24;;;;;;;4.05;1.27;;;24.00;6.30;;;;;;5048207;28;20079;-68
2023/06/23 09:47:51;;;;;;;1.38;0.88;;;23.80;3.90;;;;;;5067652;28;20584;-68
2023/06/23 09:50:21;;;;;;;1.00;1.00;;;23.70;1.00;;;;;;5065757;28;20117;-67
2023/06/23 09:52:58;;;;;;;1.63;1.15;;;23.70;2.40;;;;;;5033198;28;20071;-67
2023/06/23 09:55:25;;;;;;;2.10;1.40;;;23.50;4.20;;;;;;5048672;28;20079;-67
2023/06/23 09:57:51;;;;;;;1.70;1.20;;;23.70;10.60;;;;;;5049511;28;20060;-68
2023/06/23 10:00:18;;;;;;;2.40;2.20;;;23.70;18.20;;;;;;5067110;28;20044;-67
2023/06/23 10:02:45;;;;;;;2.70;1.50;;;23.70;13.40;;;;;;5070444;28;20085;-68
2023/06/23 10:05:12;;;;;;;0.98;0.98;;;23.70;12.20;;;;;;5048923;28;20045;-68
2023/06/23 10:07:38;;;;;;;1.30;1.20;;;23.60;10.00;;;;;;5065724;28;20048;-67
2023/06/23 10:10:09;;;;;;;1.05;0.95;;;23.60;9.90;;;;;;5049710;28;20063;-67
2023/06/23 10:12:39;;;;;;;0.90;0.90;;;23.50;7.70;;;;;;5083435;28;20144;-68
2023/06/23 10:15:07;;;;;;;1.20;1.10;;;23.40;11.70;;;;;;5087503;28;20044;-67
2023/06/23 10:17:34;;;;;;;1.35;1.08;;;23.30;16.50;;;;;;5067904;28;20067;-67
2023/06/23 10:20:04;;;;;;;0.90;0.90;;;23.40;21.00;;;;;;5086242;28;20141;-68
2023/06/23 10:22:31;;;;;;;2.55;1.20;;;23.30;15.90;;;;;;5069011;28;20040;-68
2023/06/23 10:24:59;;;;;;;2.28;1.88;;;23.10;16.80;;;;;;5086010;28;20055;-68
2023/06/23 10:27:28;;;;;;;1.10;0.87;;;23.00;15.20;;;;;;5080973;28;20047;-67
2023/06/23 10:29:57;;;;;;;1.02;1.00;;;23.00;13.90;;;;;;5086000;28;20047;-67
2023/06/23 10:32:27;;;;;;;1.48;0.90;;;22.90;14.70;;;;;;5049098;28;20049;-67
2023/06/23 10:35:03;;;;;;;0.85;0.85;;;22.90;14.90;;;;;;5086020;28;20166;-67
2023/06/23 10:37:30;;;;;;;1.05;1.05;;;22.90;13.90;;;;;;5084994;28;20067;-67
2023/06/23 10:40:04;;;;;;;1.27;1.17;;;22.80;14.90;;;;;;5087342;28;20624;-67
2023/06/23 10:42:34;;;;;;;0.93;0.93;;;22.80;20.00;;;;;;5085374;28;20365;-67
2023/06/23 10:45:01;;;;;;;1.90;1.10;;;22.80;14.20;;;;;;5087314;28;20511;-68
2023/06/23 10:47:27;;;;;;;1.25;0.98;;;22.80;11.20;;;;;;5064817;28;20119;-68
2023/06/23 10:49:56;;;;;;;1.73;1.35;;;22.80;22.00;;;;;;5064058;28;20059;-67
2023/06/23 10:52:23;;;;;;;1.33;1.30;;;22.80;9.30;;;;;;5087032;28;20044;-68
2023/06/23 10:54:49;;;;;;;2.08;1.10;;;22.80;12.10;;;;;;5064782;28;20056;-67
2023/06/23 10:57:16;;;;;;;1.77;1.23;;;22.60;12.00;;;;;;5086928;28;20449;-67
2023/06/23 10:59:59;;;;;;;0.90;0.90;;;22.60;13.50;;;;;;5085476;28;20126;-67
2023/06/23 11:02:25;;;;;;;1.38;1.00;;;22.60;5.40;;;;;;5065860;28;20044;-67
2023/06/23 11:04:56;;;;;;;1.05;0.95;;;22.60;5.10;;;;;;5079725;28;20479;-67
2023/06/23 11:07:24;;;;;;;0.98;0.90;;;22.60;1.00;;;;;;5085580;28;20036;-66
2023/06/23 11:09:54;;;;;;;2.55;1.00;;;22.60;9.40;;;;;;5060472;28;20056;-67
2023/06/23 11:12:38;;;;;;;1.02;1.02;;;22.70;7.60;;;;;;5079847;28;20048;-68
2023/06/23 11:15:23;;;;;;;1.05;0.95;;;22.70;13.10;;;;;;5087097;28;20052;-68
2023/06/23 11:18:00;;;;;;;1.52;1.25;;;22.50;8.00;;;;;;5087193;28;20098;-67
2023/06/23 11:20:32;;;;;;;2.20;1.00;;;22.40;9.00;;;;;;5089308;28;20040;-67
2023/06/23 11:23:01;;;;;;;2.25;1.30;;;22.40;17.40;;;;;;5089531;28;20051;-68
2023/06/23 11:25:47;;;;;;;1.13;1.05;;;22.50;27.20;;;;;;5085338;28;20661;-67
2023/06/23 11:28:29;;;;;;;0.98;0.98;;;22.50;18.00;;;;;;5090748;28;20052;-67
2023/06/23 11:31:12;;;;;;;2.50;1.25;;;22.50;20.70;;;;;;5090773;28;20119;-67
2023/06/23 11:33:44;;;;;;;2.65;1.02;;;22.40;18.90;;;;;;5089009;28;20059;-67
2023/06/23 11:36:17;;;;;;;1.00;1.00;;;22.50;22.10;;;;;;5090157;28;20436;-67
2023/06/23 11:38:44;;;;;;;2.00;1.42;;;22.40;13.60;;;;;;5088663;28;20040;-67
2023/06/23 11:41:14;;;;;;;0.98;0.98;;;22.30;15.90;;;;;;5090531;28;20051;-67
2023/06/23 11:43:45;;;;;;;1.40;1.25;;;22.40;17.40;;;;;;5089520;28;20103;-67
2023/06/23 11:46:15;;;;;;;1.73;1.10;;;22.40;27.80;;;;;;5089577;28;20127;-67
2023/06/23 11:48:43;;;;;;;1.13;1.00;;;22.40;26.40;;;;;;5076603;28;20040;-67
2023/06/23 11:51:12;;;;;;;1.08;1.08;;;22.50;25.50;;;;;;5067444;28;20050;-67
2023/06/23 11:53:42;;;;;;;1.52;1.20;;;22.60;30.00;;;;;;5071080;28;20490;-67
2023/06/23 11:56:13;;;;;;;1.35;1.25;;;22.90;32.30;;;;;;5088796;28;20115;-67
2023/06/23 11:58:39;;;;;;;1.65;1.50;;;23.00;23.20;;;;;;5089418;28;20541;-66
2023/06/23 12:01:06;;;;;;;4.35;1.58;;;23.20;22.30;;;;;;5082325;28;20079;-66
2023/06/23 12:03:33;;;;;;;1.80;1.13;;;23.10;16.50;;;;;;5071432;28;20594;-66
2023/06/23 12:05:59;;;;;;;1.75;1.13;;;23.00;16.40;;;;;;5069915;28;20040;-65
2023/06/23 12:08:27;;;;;;;2.28;2.10;;;22.90;18.90;;;;;;5068934;28;20074;-66
2023/06/23 12:10:55;;;;;;;263.77;24.27;;;23.10;18.00;;;;;;5072888;28;20079;-66
2023/06/23 12:13:22;;;;;;;2.03;1.92;;;23.10;17.60;;;;;;5050111;28;20094;-66
2023/06/23 12:15:48;;;;;;;1.27;1.08;;;23.10;13.30;;;;;;5051840;28;20082;-66
2023/06/23 12:18:15;;;;;;;5.13;1.65;;;23.00;14.30;;;;;;5068515;28;20032;-66
2023/06/23 12:20:45;;;;;;;5.35;2.08;;;23.10;16.80;;;;;;5068013;28;20052;-67
2023/06/23 12:23:11;;;;;;;2.35;2.05;;;23.10;10.90;;;;;;5069167;28;20051;-66
2023/06/23 12:25:58;;;;;;;1.65;1.55;;;23.10;11.70;;;;;;5050699;28;20055;-67
2023/06/23 12:28:31;;;;;;;2.45;1.42;;;23.10;11.50;;;;;;5071544;28;20075;-66
2023/06/23 12:30:58;;;;;;;2.53;1.80;;;23.10;16.10;;;;;;5069718;28;20067;-66
2023/06/23 12:33:28;;;;;;;2.60;1.60;;;23.20;16.70;;;;;;5067892;28;20097;-67
2023/06/23 12:36:03;;;;;;;2.20;1.98;;;23.30;7.90;;;;;;5068958;28;20047;-67
2023/06/23 12:38:37;;;;;;;1.70;1.60;;;23.20;6.70;;;;;;5066836;28;20556;-67
2023/06/23 12:41:17;;;;;;;1.80;1.70;;;23.20;4.50;;;;;;5068922;28;20394;-67
2023/06/23 12:43:44;;;;;;;3.08;1.95;;;23.10;1.00;;;;;;5067051;28;20055;-66
2023/06/23 12:46:13;;;;;;;1.65;1.55;;;23.10;4.80;;;;;;5068988;28;20524;-67
2023/06/23 12:48:39;;;;;;;3.53;2.10;;;23.10;5.40;;;;;;5068320;28;20428;-66
2023/06/23 12:51:06;;;;;;;1.60;1.50;;;23.20;1.00;;;;;;5067612;28;20387;-66
2023/06/23 12:53:33;;;;;;;6.55;2.45;;;23.20;1.00;;;;;;5068076;28;20044;-66
2023/06/23 12:56:00;;;;;;;2.03;1.92;;;23.30;1.00;;;;;;5066587;28;20060;-66
2023/06/23 12:58:27;;;;;;;4.20;1.90;;;23.30;1.00;;;;;;5068213;28;20136;-66
2023/06/23 13:00:53;;;;;;;2.17;1.98;;;23.30;1.30;;;;;;5050676;28;20032;-67
2023/06/23 13:03:20;;;;;;;1.92;1.58;;;23.20;1.00;;;;;;5073336;28;20063;-67